Normal, Illinois
Current Conditions -  °F | °C
As of 4:56 AM on Thursday 23 Oct 2014 (Local Time) from KBMI Reporting Station
Unknown Precip Unknown Precip  
Wind Chill: 32°   Ceiling: Unl
Heat Index: 37°   Visibility: 10mi
Dew Point: 35°   Wind: 6mph
Humidity: 93%   Direction: 170°S
Pressure: 30.22"   Gusts: NA
Location:  40.51°N, 88.99°W
Report Text: KBMI 230956Z AUTO 17005KT 10SM UP CLR 03/02 A3022 RMK AO2 T00270016 RAB22E56UPB56SNB58E08 P0000 SLP237
Loading
Personal Weather Stations






























Interactive Weather Map
Tropical Storm Tracking
New forecast layout! Learn more

10-Day Weather Forecast

Advertisements
Track Severe Weather on mobile